This is the latest recevied weather packets stored in our database for station/object 9W2CEW-1. If no packets are shown the sender has not sent any weather packets the latest 10 day(s).
| Time | Temp. | Humidity | Pressure | Rain* | Wind** | Luminosity | Snow |
|---|---|---|---|---|---|---|---|
| 1777004653 | 36.11° C | 47% | 1002.6 hPa | - | - | - | - |
| 1777003786 | 35.56° C | 47% | 1002.8 hPa | - | - | - | - |
| 1777003755 | 35.56° C | 47% | 1002.8 hPa | - | - | - | - |
| 1777002886 | 35.56° C | 49% | 1003 hPa | - | - | - | - |
| 1777002853 | 35.56° C | 49% | 1003 hPa | - | - | - | - |
| 1777001953 | 35.56° C | 50% | 1003.2 hPa | - | - | - | - |
| 1777001092 | 35° C | 50% | 1003.4 hPa | - | - | - | - |
| 1777001053 | 35° C | 50% | 1003.4 hPa | - | - | - | - |
| 1777000153 | 34.44° C | 53% | 1003.5 hPa | - | - | - | - |
| 1776999253 | 35° C | 52% | 1003.4 hPa | - | - | - | - |
| 1776998361 | 35.56° C | 50% | 1003.5 hPa | - | - | - | - |
| 1776997495 | 34.44° C | 55% | 1003.4 hPa | - | - | - | - |
| 1776997452 | 34.44° C | 55% | 1003.4 hPa | - | - | - | - |
| 1776996552 | 33.33° C | 58% | 1003.3 hPa | - | - | - | - |
| 1776995652 | 34.44° C | 56% | 1003.3 hPa | - | - | - | - |
| 1776994752 | 32.22° C | 64% | 1003.4 hPa | - | - | - | - |
| 1776994027 | 31.67° C | 66% | 1003.3 hPa | - | - | - | - |
| 1776993854 | 31.67° C | 66% | 1003.3 hPa | - | - | - | - |
| 1776992955 | 31.11° C | 68% | 1003 hPa | - | - | - | - |
| 1776992054 | 31.11° C | 70% | 1003.1 hPa | - | - | - | - |
| 1776991251 | 30° C | 73% | 1003 hPa | - | - | - | - |
| 1776991153 | 30° C | 73% | 1003 hPa | - | - | - | - |
| 1776990287 | 29.44° C | 78% | 1002.9 hPa | - | - | - | - |
| 1776990253 | 29.44° C | 78% | 1002.9 hPa | - | - | - | - |
| 1776989606 | 29.44° C | 79% | 1002.9 hPa | - | - | - | - |
* Rain since midnight (hover to see other rain measurements)
** Current wind speed in m/s (hover to see current wind gust speed)